PWSweather.com
Personal Weather Stations
Station Observations
PLIWOJE121
HaczowPL 36-213

HaczowPL 36-213

Lat: 49.66759829999999, Lon: 21.890613799999983

Elevation: 9

Station Type: WH1080

Latest ConditionsUpdated 10:10:00 AM GMT+01:01 Sunday, Oct 21, 2018
Currently Today's Max Today's Min Today's Average
Temperature 46.2°F7.9°C 46.2°F7.9°C 42.8°F6.0°C 43.9°F6.6°C
Dew Point 36.6°F2.6°C 36.6°F2.6°C 33.7°F0.9°C 34.6°F1.4°C
Winds 3.5 mph N5.6 kmh N 19.0 mph -30.6 kmh - - 10.5 mph 16.9 kmh
Wind Gusts 4.5 mph7.2 kmh 22.8 mph36.7 kmh - -
Humidity 69% 70% 69% 70%
Pressure 30.01 in1016.3 mb 30.01 in1016.3 mb 29.91 in1012.9 mb -
Precipitation - 0.38 in9.7 mm - -
Hour Temp Dew Point Humidity Winds Wind Gusts Pressure Precip Precip Rate Daily Precip Total
10:10 AM 46.2°F7.9°C 36.6°F2.6°C 69% 3.5 mph N5.6 kmh N 4.5 mph7.2 kmh 30.01 in1016.3 mb 0.00 in0.0 mm 0.00 in0.0 mm 0.38 in9.7 mm
10:05 AM 46.2°F7.9°C 36.6°F2.6°C 69% 3.4 mph NW5.5 kmh NW 6.0 mph9.7 kmh 30.01 in1016.3 mb 0.00 in0.0 mm 0.00 in0.0 mm 0.38 in9.7 mm
10:00 AM 46.0°F7.8°C 36.4°F2.4°C 69% 3.9 mph SW6.3 kmh SW 6.9 mph11.1 kmh 30.00 in1015.9 mb 0.00 in0.0 mm 0.00 in0.0 mm 0.38 in9.7 mm
09:55 AM 45.9°F7.7°C 36.3°F2.4°C 69% 4.6 mph S7.4 kmh S 6.9 mph11.1 kmh 30.00 in1015.9 mb 0.00 in0.0 mm 0.00 in0.0 mm 0.38 in9.7 mm
09:50 AM 45.7°F7.6°C 36.1°F2.3°C 69% 3.9 mph W6.3 kmh W 6.9 mph11.1 kmh 30.00 in1015.9 mb 0.00 in0.0 mm 0.00 in0.0 mm 0.38 in9.7 mm
09:45 AM 45.7°F7.6°C 36.1°F2.3°C 69% 3.3 mph W5.3 kmh W 5.4 mph8.7 kmh 30.00 in1015.9 mb 0.00 in0.0 mm 0.00 in0.0 mm 0.38 in9.7 mm
09:40 AM 45.5°F7.5°C 35.9°F2.2°C 69% 3.1 mph S5.0 kmh S 6.9 mph11.1 kmh 30.00 in1015.9 mb 0.00 in0.0 mm 0.00 in0.0 mm 0.38 in9.7 mm
09:35 AM 45.5°F7.5°C 35.9°F2.2°C 69% 4.1 mph NW6.6 kmh NW 8.3 mph13.4 kmh 30.00 in1015.9 mb 0.00 in0.0 mm 0.00 in0.0 mm 0.38 in9.7 mm
09:30 AM 45.5°F7.5°C 35.9°F2.2°C 69% 5.0 mph NW8.0 kmh NW 8.3 mph13.4 kmh 30.00 in1015.9 mb 0.00 in0.0 mm 0.00 in0.0 mm 0.38 in9.7 mm
09:25 AM 45.3°F7.4°C 35.7°F2.1°C 69% 3.9 mph NW6.3 kmh NW 6.0 mph9.7 kmh 29.99 in1015.6 mb 0.00 in0.0 mm 0.00 in0.0 mm 0.38 in9.7 mm
09:20 AM 45.3°F7.4°C 35.7°F2.1°C 69% 3.6 mph N5.8 kmh N 6.0 mph9.7 kmh 29.99 in1015.6 mb 0.00 in0.0 mm 0.00 in0.0 mm 0.38 in9.7 mm
09:15 AM 45.1°F7.3°C 35.6°F2.0°C 69% 4.4 mph NNW7.1 kmh NNW 6.9 mph11.1 kmh 29.99 in1015.6 mb 0.00 in0.0 mm 0.00 in0.0 mm 0.38 in9.7 mm
09:10 AM 45.0°F7.2°C 35.4°F1.9°C 69% 4.5 mph NW7.2 kmh NW 6.9 mph11.1 kmh 29.99 in1015.6 mb 0.00 in0.0 mm 0.00 in0.0 mm 0.38 in9.7 mm
09:05 AM 45.0°F7.2°C 35.4°F1.9°C 69% 3.2 mph NW5.1 kmh NW 6.9 mph11.1 kmh 29.99 in1015.6 mb 0.00 in0.0 mm 0.00 in0.0 mm 0.38 in9.7 mm
09:00 AM 45.0°F7.2°C 35.4°F1.9°C 69% 1.8 mph NNE2.9 kmh NNE 3.8 mph6.1 kmh 29.99 in1015.6 mb 0.00 in0.0 mm 0.00 in0.0 mm 0.38 in9.7 mm
08:55 AM 45.0°F7.2°C 35.4°F1.9°C 69% 2.0 mph N3.2 kmh N 3.8 mph6.1 kmh 29.99 in1015.6 mb 0.00 in0.0 mm 0.00 in0.0 mm 0.38 in9.7 mm
08:50 AM 44.8°F7.1°C 35.2°F1.8°C 69% 3.2 mph NW5.1 kmh NW 8.3 mph13.4 kmh 29.98 in1015.2 mb 0.00 in0.0 mm 0.00 in0.0 mm 0.38 in9.7 mm
08:45 AM 44.8°F7.1°C 35.2°F1.8°C 69% 2.9 mph W4.7 kmh W 8.3 mph13.4 kmh 29.98 in1015.2 mb 0.00 in0.0 mm 0.00 in0.0 mm 0.38 in9.7 mm
08:40 AM 44.8°F7.1°C 35.2°F1.8°C 69% 2.9 mph NW4.7 kmh NW 5.4 mph8.7 kmh 29.98 in1015.2 mb 0.00 in0.0 mm 0.00 in0.0 mm 0.38 in9.7 mm
08:35 AM 44.8°F7.1°C 35.2°F1.8°C 69% 3.7 mph N6.0 kmh N 5.4 mph8.7 kmh 29.98 in1015.2 mb 0.00 in0.0 mm 0.00 in0.0 mm 0.38 in9.7 mm
08:30 AM 44.6°F7.0°C 35.1°F1.7°C 69% 4.1 mph N6.6 kmh N 6.9 mph11.1 kmh 29.98 in1015.2 mb 0.00 in0.0 mm 0.00 in0.0 mm 0.38 in9.7 mm
08:25 AM 44.6°F7.0°C 35.1°F1.7°C 69% 4.6 mph N7.4 kmh N 9.2 mph14.8 kmh 29.98 in1015.2 mb 0.00 in0.0 mm 0.00 in0.0 mm 0.38 in9.7 mm
08:20 AM 44.6°F7.0°C 35.1°F1.7°C 69% 4.6 mph N7.4 kmh N 9.2 mph14.8 kmh 29.98 in1015.2 mb 0.00 in0.0 mm 0.00 in0.0 mm 0.38 in9.7 mm
08:15 AM 44.6°F7.0°C 35.1°F1.7°C 69% 5.1 mph NW8.2 kmh NW 8.3 mph13.4 kmh 29.97 in1014.9 mb 0.00 in0.0 mm 0.00 in0.0 mm 0.38 in9.7 mm
08:10 AM 44.6°F7.0°C 35.1°F1.7°C 69% 4.7 mph NW7.6 kmh NW 8.3 mph13.4 kmh 29.96 in1014.6 mb 0.00 in0.0 mm 0.00 in0.0 mm 0.38 in9.7 mm
08:05 AM 44.6°F7.0°C 35.1°F1.7°C 69% 4.1 mph NW6.6 kmh NW 6.9 mph11.1 kmh 29.97 in1014.9 mb 0.00 in0.0 mm 0.00 in0.0 mm 0.38 in9.7 mm
08:00 AM 44.6°F7.0°C 35.1°F1.7°C 69% 3.4 mph N5.5 kmh N 6.0 mph9.7 kmh 29.97 in1014.9 mb 0.00 in0.0 mm 0.00 in0.0 mm 0.38 in9.7 mm
07:55 AM 44.6°F7.0°C 35.1°F1.7°C 69% 2.7 mph NNW4.3 kmh NNW 6.9 mph11.1 kmh 29.96 in1014.6 mb 0.00 in0.0 mm 0.00 in0.0 mm 0.38 in9.7 mm
07:50 AM 44.6°F7.0°C 35.1°F1.7°C 69% 3.3 mph NNW5.3 kmh NNW 6.9 mph11.1 kmh 29.96 in1014.6 mb 0.00 in0.0 mm 0.00 in0.0 mm 0.38 in9.7 mm
07:45 AM 44.8°F7.1°C 35.2°F1.8°C 69% 3.7 mph N6.0 kmh N 6.9 mph11.1 kmh 29.97 in1014.9 mb 0.00 in0.0 mm 0.00 in0.0 mm 0.38 in9.7 mm
07:40 AM 44.8°F7.1°C 35.2°F1.8°C 69% 3.5 mph N5.6 kmh N 6.0 mph9.7 kmh 29.96 in1014.6 mb 0.00 in0.0 mm 0.00 in0.0 mm 0.38 in9.7 mm
07:35 AM 44.8°F7.1°C 35.2°F1.8°C 69% 3.0 mph NNW4.8 kmh NNW 6.0 mph9.7 kmh 29.95 in1014.2 mb 0.00 in0.0 mm 0.00 in0.0 mm 0.38 in9.7 mm
07:30 AM 44.8°F7.1°C 35.2°F1.8°C 69% 2.9 mph NNW4.7 kmh NNW 6.9 mph11.1 kmh 29.96 in1014.6 mb 0.00 in0.0 mm 0.00 in0.0 mm 0.38 in9.7 mm
07:25 AM 44.8°F7.1°C 35.2°F1.8°C 69% 4.4 mph N7.1 kmh N 12.1 mph19.5 kmh 29.95 in1014.2 mb 0.00 in0.0 mm 0.00 in0.0 mm 0.38 in9.7 mm
07:20 AM 44.8°F7.1°C 35.2°F1.8°C 69% 3.8 mph N6.1 kmh N 12.1 mph19.5 kmh 29.95 in1014.2 mb 0.00 in0.0 mm 0.00 in0.0 mm 0.38 in9.7 mm
07:15 AM 44.6°F7.0°C 35.1°F1.7°C 69% 2.6 mph NW4.2 kmh NW 6.9 mph11.1 kmh 29.95 in1014.2 mb 0.00 in0.0 mm 0.00 in0.0 mm 0.38 in9.7 mm
07:10 AM 44.6°F7.0°C 35.1°F1.7°C 69% 4.3 mph NW6.9 kmh NW 7.6 mph12.2 kmh 29.94 in1013.9 mb 0.00 in0.0 mm 0.00 in0.0 mm 0.38 in9.7 mm
07:05 AM 44.6°F7.0°C 35.1°F1.7°C 69% 5.1 mph NW8.2 kmh NW 9.8 mph15.8 kmh 29.95 in1014.2 mb 0.00 in0.0 mm 0.00 in0.0 mm 0.38 in9.7 mm
07:00 AM 44.6°F7.0°C 35.1°F1.7°C 69% 5.6 mph NW9.0 kmh NW 9.8 mph15.8 kmh 29.94 in1013.9 mb 0.00 in0.0 mm 0.00 in0.0 mm 0.38 in9.7 mm
06:55 AM 44.1°F6.7°C 34.9°F1.6°C 70% 6.9 mph NW11.1 kmh NW 9.2 mph14.8 kmh 29.94 in1013.9 mb 0.00 in0.0 mm 0.00 in0.0 mm 0.38 in9.7 mm
06:50 AM 43.9°F6.6°C 34.7°F1.5°C 70% 6.6 mph WNW10.6 kmh WNW 9.2 mph14.8 kmh 29.94 in1013.9 mb 0.00 in0.0 mm 0.00 in0.0 mm 0.38 in9.7 mm
06:45 AM 43.7°F6.5°C 34.6°F1.4°C 70% 5.7 mph WNW9.2 kmh WNW 6.9 mph11.1 kmh 29.93 in1013.5 mb 0.00 in0.0 mm 0.00 in0.0 mm 0.38 in9.7 mm
06:40 AM 43.7°F6.5°C 34.6°F1.4°C 70% 6.1 mph W9.8 kmh W 6.9 mph11.1 kmh 29.93 in1013.5 mb 0.00 in0.0 mm 0.00 in0.0 mm 0.38 in9.7 mm
06:35 AM 43.2°F6.2°C 34.0°F1.1°C 70% 6.1 mph W9.8 kmh W 6.9 mph11.1 kmh 29.94 in1013.9 mb 0.00 in0.0 mm 0.00 in0.0 mm 0.38 in9.7 mm
06:30 AM 43.2°F6.2°C 34.0°F1.1°C 70% 6.0 mph WNW9.7 kmh WNW 7.6 mph12.2 kmh 29.94 in1013.9 mb 0.00 in0.0 mm 0.00 in0.0 mm 0.38 in9.7 mm
06:25 AM 43.2°F6.2°C 34.0°F1.1°C 70% 5.8 mph WNW9.3 kmh WNW 7.6 mph12.2 kmh 29.94 in1013.9 mb 0.00 in0.0 mm 0.00 in0.0 mm 0.38 in9.7 mm
06:20 AM 43.2°F6.2°C 34.0°F1.1°C 70% 6.1 mph WNW9.8 kmh WNW 8.3 mph13.4 kmh 29.93 in1013.5 mb 0.00 in0.0 mm 0.00 in0.0 mm 0.38 in9.7 mm
06:15 AM 43.2°F6.2°C 34.0°F1.1°C 70% 7.2 mph WNW11.6 kmh WNW 9.2 mph14.8 kmh 29.93 in1013.5 mb 0.00 in0.0 mm 0.00 in0.0 mm 0.38 in9.7 mm
06:10 AM 43.2°F6.2°C 34.0°F1.1°C 70% 8.1 mph WNW13.0 kmh WNW 9.8 mph15.8 kmh 29.93 in1013.5 mb 0.00 in0.0 mm 0.00 in0.0 mm 0.38 in9.7 mm
06:05 AM 43.0°F6.1°C 33.9°F1.1°C 70% 9.7 mph WNW15.6 kmh WNW 13.6 mph21.9 kmh 29.93 in1013.5 mb 0.00 in0.0 mm 0.00 in0.0 mm 0.38 in9.7 mm
06:00 AM 43.0°F6.1°C 33.9°F1.1°C 70% 10.6 mph WNW17.1 kmh WNW 13.6 mph21.9 kmh 29.93 in1013.5 mb 0.00 in0.0 mm 0.00 in0.0 mm 0.38 in9.7 mm
05:55 AM 43.0°F6.1°C 33.9°F1.1°C 70% 10.3 mph NW16.6 kmh NW 13.0 mph20.9 kmh 29.92 in1013.2 mb 0.00 in0.0 mm 0.00 in0.0 mm 0.38 in9.7 mm
05:50 AM 43.0°F6.1°C 33.9°F1.1°C 70% 11.3 mph NW18.2 kmh NW 13.6 mph21.9 kmh 29.93 in1013.5 mb 0.00 in0.0 mm 0.00 in0.0 mm 0.38 in9.7 mm
05:45 AM 43.0°F6.1°C 33.9°F1.1°C 70% 12.7 mph WNW20.4 kmh WNW 15.2 mph24.5 kmh 29.92 in1013.2 mb 0.00 in0.0 mm 0.00 in0.0 mm 0.38 in9.7 mm
05:40 AM 43.0°F6.1°C 33.9°F1.1°C 70% 12.3 mph NW19.8 kmh NW 15.2 mph24.5 kmh 29.92 in1013.2 mb 0.00 in0.0 mm 0.00 in0.0 mm 0.38 in9.7 mm
05:35 AM 43.0°F6.1°C 33.9°F1.1°C 70% 11.8 mph WNW19.0 kmh WNW 14.5 mph23.3 kmh 29.93 in1013.5 mb 0.00 in0.0 mm 0.00 in0.0 mm 0.38 in9.7 mm
05:30 AM 43.0°F6.1°C 33.9°F1.1°C 70% 12.9 mph WNW20.8 kmh WNW 14.5 mph23.3 kmh 29.92 in1013.2 mb 0.00 in0.0 mm 0.00 in0.0 mm 0.38 in9.7 mm
05:25 AM 43.0°F6.1°C 33.9°F1.1°C 70% 13.5 mph WNW21.7 kmh WNW 17.4 mph28.0 kmh 29.93 in1013.5 mb 0.00 in0.0 mm 0.00 in0.0 mm 0.38 in9.7 mm
05:20 AM 43.0°F6.1°C 33.9°F1.1°C 70% 13.1 mph WNW21.1 kmh WNW 17.4 mph28.0 kmh 29.93 in1013.5 mb 0.00 in0.0 mm 0.00 in0.0 mm 0.38 in9.7 mm
05:15 AM 43.0°F6.1°C 33.9°F1.1°C 70% 13.0 mph NW20.9 kmh NW 16.8 mph27.0 kmh 29.92 in1013.2 mb 0.00 in0.0 mm 0.00 in0.0 mm 0.38 in9.7 mm
05:10 AM 43.0°F6.1°C 33.9°F1.1°C 70% 13.8 mph WNW22.2 kmh WNW 18.3 mph29.5 kmh 29.93 in1013.5 mb 0.00 in0.0 mm 0.00 in0.0 mm 0.38 in9.7 mm
05:05 AM 43.0°F6.1°C 33.9°F1.1°C 70% 14.1 mph WNW22.7 kmh WNW 18.3 mph29.5 kmh 29.92 in1013.2 mb 0.00 in0.0 mm 0.00 in0.0 mm 0.38 in9.7 mm
05:00 AM 43.0°F6.1°C 33.9°F1.1°C 70% 12.8 mph NW20.6 kmh NW 15.9 mph25.6 kmh 29.92 in1013.2 mb 0.00 in0.0 mm 0.00 in0.0 mm 0.38 in9.7 mm
04:55 AM 43.0°F6.1°C 33.9°F1.1°C 70% 11.9 mph NW19.2 kmh NW 13.0 mph20.9 kmh 29.92 in1013.2 mb 0.00 in0.0 mm 0.00 in0.0 mm 0.38 in9.7 mm
04:50 AM 43.0°F6.1°C 33.9°F1.1°C 70% 12.4 mph NW20.0 kmh NW 13.6 mph21.9 kmh 29.92 in1013.2 mb 0.00 in0.0 mm 0.00 in0.0 mm 0.38 in9.7 mm
04:45 AM 43.0°F6.1°C 33.9°F1.1°C 70% 12.9 mph NW20.8 kmh NW 15.9 mph25.6 kmh 29.92 in1013.2 mb 0.00 in0.0 mm 0.00 in0.0 mm 0.38 in9.7 mm
04:40 AM 43.0°F6.1°C 33.9°F1.1°C 70% 13.6 mph NW21.9 kmh NW 15.9 mph25.6 kmh 29.93 in1013.5 mb 0.00 in0.0 mm 0.00 in0.0 mm 0.38 in9.7 mm
04:35 AM 43.0°F6.1°C 33.9°F1.1°C 70% 14.3 mph NW23.0 kmh NW 17.4 mph28.0 kmh 29.92 in1013.2 mb 0.00 in0.0 mm 0.00 in0.0 mm 0.38 in9.7 mm
04:30 AM 42.8°F6.0°C 33.7°F0.9°C 70% 14.8 mph NW23.8 kmh NW 17.4 mph28.0 kmh 29.92 in1013.2 mb 0.00 in0.0 mm 0.00 in0.0 mm 0.38 in9.7 mm
04:25 AM 42.8°F6.0°C 33.7°F0.9°C 70% 15.2 mph NW24.5 kmh NW 18.3 mph29.5 kmh 29.91 in1012.9 mb 0.00 in0.0 mm 0.00 in0.0 mm 0.38 in9.7 mm
04:20 AM 42.8°F6.0°C 33.7°F0.9°C 70% 15.5 mph WNW24.9 kmh WNW 18.3 mph29.5 kmh 29.92 in1013.2 mb 0.01 in0.3 mm 0.00 in0.0 mm 0.38 in9.7 mm
04:15 AM 42.8°F6.0°C 33.7°F0.9°C 70% 15.5 mph WNW24.9 kmh WNW 17.4 mph28.0 kmh 29.92 in1013.2 mb 0.02 in0.5 mm 0.00 in0.0 mm 0.38 in9.7 mm
04:10 AM 42.8°F6.0°C 33.7°F0.9°C 70% 16.0 mph NW25.7 kmh NW 17.4 mph28.0 kmh 29.91 in1012.9 mb 0.04 in1.0 mm 0.00 in0.0 mm 0.38 in9.7 mm
04:05 AM 42.8°F6.0°C 33.7°F0.9°C 70% 15.2 mph NW24.5 kmh NW 17.4 mph28.0 kmh 29.92 in1013.2 mb 0.05 in1.3 mm 0.00 in0.0 mm 0.38 in9.7 mm
04:00 AM 42.8°F6.0°C 33.7°F0.9°C 70% 15.1 mph WNW24.3 kmh WNW 17.4 mph28.0 kmh 29.91 in1012.9 mb 0.07 in1.8 mm 0.00 in0.0 mm 0.38 in9.7 mm
03:55 AM 42.8°F6.0°C 33.7°F0.9°C 70% 16.3 mph WNW26.2 kmh WNW 19.0 mph30.6 kmh 29.92 in1013.2 mb 0.08 in2.0 mm 0.00 in0.0 mm 0.38 in9.7 mm
03:50 AM 42.8°F6.0°C 33.7°F0.9°C 70% 17.0 mph NW27.4 kmh NW 19.0 mph30.6 kmh 29.92 in1013.2 mb 0.11 in2.8 mm 0.00 in0.0 mm 0.38 in9.7 mm
03:45 AM 42.8°F6.0°C 33.7°F0.9°C 70% 16.8 mph NW27.0 kmh NW 18.3 mph29.5 kmh 29.92 in1013.2 mb 0.12 in3.0 mm 0.00 in0.0 mm 0.38 in9.7 mm
03:40 AM 42.8°F6.0°C 33.7°F0.9°C 70% 15.8 mph NW25.4 kmh NW 18.3 mph29.5 kmh 29.91 in1012.9 mb 0.13 in3.3 mm 0.00 in0.0 mm 0.38 in9.7 mm
03:35 AM 42.8°F6.0°C 33.7°F0.9°C 70% 14.9 mph NW24.0 kmh NW 18.3 mph29.5 kmh 29.91 in1012.9 mb 0.14 in3.6 mm 0.00 in0.0 mm 0.38 in9.7 mm
03:30 AM 42.8°F6.0°C 33.7°F0.9°C 70% 13.4 mph NW21.6 kmh NW 15.2 mph24.5 kmh 29.91 in1012.9 mb 0.14 in3.6 mm 0.00 in0.0 mm 0.38 in9.7 mm
03:25 AM 42.8°F6.0°C 33.7°F0.9°C 70% 12.7 mph NW20.4 kmh NW 14.5 mph23.3 kmh 29.91 in1012.9 mb 0.14 in3.6 mm 0.12 in3.0 mm 0.38 in9.7 mm
03:20 AM 42.8°F6.0°C 33.7°F0.9°C 70% 13.5 mph WNW21.7 kmh WNW 16.8 mph27.0 kmh 29.91 in1012.9 mb 0.13 in3.3 mm 0.00 in0.0 mm 0.37 in9.4 mm
03:15 AM 42.8°F6.0°C 33.7°F0.9°C 70% 14.3 mph WNW23.0 kmh WNW 18.3 mph29.5 kmh 29.91 in1012.9 mb 0.13 in3.3 mm 0.00 in0.0 mm 0.35 in8.9 mm
03:10 AM 42.8°F6.0°C 33.7°F0.9°C 70% 13.8 mph WNW22.2 kmh WNW 18.3 mph29.5 kmh 29.91 in1012.9 mb 0.13 in3.3 mm 0.00 in0.0 mm 0.34 in8.6 mm
03:05 AM 43.0°F6.1°C 33.9°F1.1°C 70% 14.2 mph WNW22.9 kmh WNW 19.0 mph30.6 kmh 29.91 in1012.9 mb 0.13 in3.3 mm 0.12 in3.0 mm 0.33 in8.4 mm
03:00 AM 43.0°F6.1°C 33.9°F1.1°C 70% 15.0 mph NW24.1 kmh NW 19.0 mph30.6 kmh 29.92 in1013.2 mb 0.12 in3.0 mm 0.00 in0.0 mm 0.31 in7.9 mm
02:55 AM 43.2°F6.2°C 34.0°F1.1°C 70% 14.9 mph NW24.0 kmh NW 18.3 mph29.5 kmh 29.91 in1012.9 mb 0.13 in3.3 mm 0.12 in3.0 mm 0.30 in7.6 mm
02:50 AM 43.2°F6.2°C 34.0°F1.1°C 70% 15.4 mph NW24.8 kmh NW 19.0 mph30.6 kmh 29.91 in1012.9 mb 0.12 in3.0 mm 0.00 in0.0 mm 0.27 in6.9 mm
02:45 AM 43.2°F6.2°C 34.0°F1.1°C 70% 15.5 mph NW24.9 kmh NW 19.0 mph30.6 kmh 29.92 in1013.2 mb 0.12 in3.0 mm 0.12 in3.0 mm 0.26 in6.6 mm
02:40 AM 43.2°F6.2°C 34.0°F1.1°C 70% 14.3 mph WNW23.0 kmh WNW 17.4 mph28.0 kmh 29.92 in1013.2 mb 0.11 in2.8 mm 0.00 in0.0 mm 0.25 in6.4 mm
02:35 AM 43.2°F6.2°C 34.0°F1.1°C 70% 14.5 mph WNW23.3 kmh WNW 17.4 mph28.0 kmh 29.92 in1013.2 mb 0.11 in2.8 mm 0.00 in0.0 mm 0.24 in6.1 mm
02:30 AM 43.2°F6.2°C 34.0°F1.1°C 70% 14.7 mph WNW23.7 kmh WNW 17.4 mph28.0 kmh 29.92 in1013.2 mb 0.12 in3.0 mm 0.00 in0.0 mm 0.24 in6.1 mm
02:25 AM 43.3°F6.3°C 34.2°F1.2°C 70% 14.9 mph WNW24.0 kmh WNW 19.0 mph30.6 kmh 29.92 in1013.2 mb 0.13 in3.3 mm 0.00 in0.0 mm 0.24 in6.1 mm
02:20 AM 43.3°F6.3°C 34.2°F1.2°C 70% 15.1 mph WNW24.3 kmh WNW 19.0 mph30.6 kmh 29.91 in1012.9 mb 0.13 in3.3 mm 0.12 in3.0 mm 0.24 in6.1 mm
02:15 AM 43.3°F6.3°C 34.2°F1.2°C 70% 14.4 mph NW23.2 kmh NW 16.8 mph27.0 kmh 29.91 in1012.9 mb 0.12 in3.0 mm 0.00 in0.0 mm 0.21 in5.3 mm
02:10 AM 43.3°F6.3°C 34.2°F1.2°C 70% 13.4 mph WNW21.6 kmh WNW 16.8 mph27.0 kmh 29.92 in1013.2 mb 0.12 in3.0 mm 0.00 in0.0 mm 0.21 in5.3 mm
02:05 AM 43.3°F6.3°C 34.2°F1.2°C 70% 12.0 mph WNW19.3 kmh WNW 14.5 mph23.3 kmh 29.92 in1013.2 mb 0.12 in3.0 mm 0.00 in0.0 mm 0.20 in5.1 mm
02:00 AM 43.3°F6.3°C 34.2°F1.2°C 70% 12.5 mph WNW20.1 kmh WNW 16.8 mph27.0 kmh 29.92 in1013.2 mb 0.12 in3.0 mm 0.03 in0.8 mm 0.19 in4.8 mm
01:55 AM 43.3°F6.3°C 34.2°F1.2°C 70% 14.3 mph WNW23.0 kmh WNW 16.8 mph27.0 kmh 29.92 in1013.2 mb 0.09 in2.3 mm 0.12 in3.0 mm 0.17 in4.3 mm
01:50 AM 43.3°F6.3°C 34.2°F1.2°C 70% 15.9 mph NW25.6 kmh NW 21.3 mph34.3 kmh 29.93 in1013.5 mb 0.08 in2.0 mm 0.12 in3.0 mm 0.15 in3.8 mm
01:45 AM 43.3°F6.3°C 34.2°F1.2°C 70% 17.5 mph NW28.2 kmh NW 21.3 mph34.3 kmh 29.92 in1013.2 mb 0.07 in1.8 mm 0.00 in0.0 mm 0.14 in3.6 mm
01:40 AM 43.3°F6.3°C 34.2°F1.2°C 70% 17.6 mph NW28.3 kmh NW 22.1 mph35.6 kmh 29.92 in1013.2 mb 0.08 in2.0 mm 0.12 in3.0 mm 0.14 in3.6 mm
01:35 AM 43.9°F6.6°C 34.7°F1.5°C 70% 16.8 mph NW27.0 kmh NW 22.1 mph35.6 kmh 29.93 in1013.5 mb 0.07 in1.8 mm 0.12 in3.0 mm 0.13 in3.3 mm
01:30 AM 43.9°F6.6°C 34.7°F1.5°C 70% 15.8 mph NW25.4 kmh NW 22.1 mph35.6 kmh 29.92 in1013.2 mb 0.06 in1.5 mm 0.00 in0.0 mm 0.12 in3.0 mm
01:25 AM 43.9°F6.6°C 34.7°F1.5°C 70% 15.2 mph NW24.5 kmh NW 18.3 mph29.5 kmh 29.92 in1013.2 mb 0.06 in1.5 mm 0.00 in0.0 mm 0.11 in2.8 mm
01:20 AM 43.9°F6.6°C 34.7°F1.5°C 70% 14.7 mph WNW23.7 kmh WNW 17.4 mph28.0 kmh 29.93 in1013.5 mb 0.06 in1.5 mm 0.12 in3.0 mm 0.11 in2.8 mm
01:15 AM 44.1°F6.7°C 34.9°F1.6°C 70% 14.4 mph NW23.2 kmh NW 17.4 mph28.0 kmh 29.92 in1013.2 mb 0.05 in1.3 mm 0.00 in0.0 mm 0.09 in2.3 mm
01:10 AM 44.1°F6.7°C 34.9°F1.6°C 70% 15.1 mph NW24.3 kmh NW 17.4 mph28.0 kmh 29.92 in1013.2 mb 0.06 in1.5 mm 0.12 in3.0 mm 0.09 in2.3 mm
01:05 AM 44.1°F6.7°C 34.9°F1.6°C 70% 15.6 mph WNW25.1 kmh WNW 17.4 mph28.0 kmh 29.92 in1013.2 mb 0.05 in1.3 mm 0.12 in3.0 mm 0.08 in2.0 mm
01:00 AM 44.1°F6.7°C 34.9°F1.6°C 70% 16.7 mph WNW26.9 kmh WNW 19.0 mph30.6 kmh 29.92 in1013.2 mb 0.04 in1.0 mm 0.00 in0.0 mm 0.07 in1.8 mm
12:55 AM 44.1°F6.7°C 34.9°F1.6°C 70% 16.3 mph WNW26.2 kmh WNW 19.0 mph30.6 kmh 29.92 in1013.2 mb 0.05 in1.3 mm 0.00 in0.0 mm 0.07 in1.8 mm
12:50 AM 44.2°F6.8°C 35.1°F1.7°C 70% 15.7 mph WNW25.3 kmh WNW 20.6 mph33.2 kmh 29.92 in1013.2 mb 0.05 in1.3 mm 0.00 in0.0 mm 0.07 in1.8 mm
12:45 AM 44.2°F6.8°C 35.1°F1.7°C 70% 16.9 mph NW27.2 kmh NW 20.6 mph33.2 kmh 29.92 in1013.2 mb 0.05 in1.3 mm 0.12 in3.0 mm 0.07 in1.8 mm
12:40 AM 44.2°F6.8°C 35.1°F1.7°C 70% 16.6 mph NW26.7 kmh NW 19.0 mph30.6 kmh 29.92 in1013.2 mb 0.04 in1.0 mm 0.00 in0.0 mm 0.06 in1.5 mm
12:35 AM 44.4°F6.9°C 35.2°F1.8°C 70% 16.8 mph NW27.0 kmh NW 22.1 mph35.6 kmh 29.92 in1013.2 mb 0.05 in1.3 mm 0.00 in0.0 mm 0.06 in1.5 mm
12:30 AM 44.4°F6.9°C 35.2°F1.8°C 70% 18.1 mph NW29.1 kmh NW 22.1 mph35.6 kmh 29.92 in1013.2 mb 0.05 in1.3 mm 0.00 in0.0 mm 0.06 in1.5 mm
12:25 AM 44.6°F7.0°C 35.1°F1.7°C 69% 19.0 mph NW30.6 kmh NW 22.8 mph36.7 kmh 29.92 in1013.2 mb 0.05 in1.3 mm 0.00 in0.0 mm 0.05 in1.3 mm
12:20 AM 44.6°F7.0°C 35.1°F1.7°C 69% 18.8 mph NW30.3 kmh NW 22.8 mph36.7 kmh 29.93 in1013.5 mb 0.05 in1.3 mm 0.00 in0.0 mm 0.05 in1.3 mm
12:15 AM 44.8°F7.1°C 35.2°F1.8°C 69% 16.9 mph NW27.2 kmh NW 20.6 mph33.2 kmh 29.93 in1013.5 mb 0.05 in1.3 mm 0.12 in3.0 mm 0.05 in1.3 mm
12:10 AM 45.0°F7.2°C 35.4°F1.9°C 69% 14.6 mph NW23.5 kmh NW 19.0 mph30.6 kmh 29.92 in1013.2 mb 0.04 in1.0 mm 0.00 in0.0 mm 0.04 in1.0 mm
12:05 AM 45.0°F7.2°C 35.4°F1.9°C 69% 14.3 mph NW23.0 kmh NW 18.3 mph29.5 kmh 29.93 in1013.5 mb 0.04 in1.0 mm 0.00 in0.0 mm 0.04 in1.0 mm
12:00 AM 45.1°F7.3°C 35.6°F2.0°C 69% 14.8 mph NW23.8 kmh NW 18.3 mph29.5 kmh 29.93 in1013.5 mb 0.04 in1.0 mm 0.00 in0.0 mm 0.04 in1.0 mm